sensor_id;sensor_type;location;lat;lon;timestamp;pressure;altitude;pressure_sealevel;temperature;humidity
67987;BME280;54767;53.800;15.956;2023-01-29T00:00:11;101007.90;;;-0.07;72.75
67987;BME280;54767;53.800;15.956;2023-01-29T00:02:59;101005.09;;;-0.08;72.69
67987;BME280;54767;53.800;15.956;2023-01-29T00:05:28;101010.01;;;-0.09;73.11
67987;BME280;54767;53.800;15.956;2023-01-29T00:07:56;101008.09;;;-0.10;72.74
67987;BME280;54767;53.800;15.956;2023-01-29T00:10:25;101008.44;;;-0.10;72.94
67987;BME280;54767;53.800;15.956;2023-01-29T00:12:53;101004.54;;;-0.09;72.88
67987;BME280;54767;53.800;15.956;2023-01-29T00:15:22;101006.00;;;-0.07;73.21
67987;BME280;54767;53.800;15.956;2023-01-29T00:17:50;101010.84;;;-0.07;73.06
67987;BME280;54767;53.800;15.956;2023-01-29T00:20:18;101010.06;;;-0.08;73.23
67987;BME280;54767;53.800;15.956;2023-01-29T00:22:47;101010.11;;;-0.11;73.48
67987;BME280;54767;53.800;15.956;2023-01-29T00:25:15;101008.51;;;-0.12;73.37
67987;BME280;54767;53.800;15.956;2023-01-29T00:27:44;101010.02;;;-0.12;73.43
67987;BME280;54767;53.800;15.956;2023-01-29T00:30:12;101019.08;;;-0.10;73.67
67987;BME280;54767;53.800;15.956;2023-01-29T00:32:41;101029.38;;;-0.11;73.56
67987;BME280;54767;53.800;15.956;2023-01-29T00:35:10;101034.44;;;-0.12;73.97
67987;BME280;54767;53.800;15.956;2023-01-29T00:37:39;101033.52;;;-0.13;73.99
67987;BME280;54767;53.800;15.956;2023-01-29T00:40:08;101035.23;;;-0.14;73.70
67987;BME280;54767;53.800;15.956;2023-01-29T00:42:37;101031.09;;;-0.14;74.04
67987;BME280;54767;53.800;15.956;2023-01-29T00:45:24;101036.88;;;-0.12;74.00
67987;BME280;54767;53.800;15.956;2023-01-29T00:47:52;101031.19;;;-0.09;74.22
67987;BME280;54767;53.800;15.956;2023-01-29T00:50:20;101030.24;;;-0.08;74.12
67987;BME280;54767;53.800;15.956;2023-01-29T00:52:48;101035.97;;;-0.06;74.54
67987;BME280;54767;53.800;15.956;2023-01-29T00:55:18;101036.33;;;-0.06;74.34
67987;BME280;54767;53.800;15.956;2023-01-29T00:57:47;101033.71;;;-0.07;74.68
67987;BME280;54767;53.800;15.956;2023-01-29T01:00:17;101022.64;;;-0.08;74.67
67987;BME280;54767;53.800;15.956;2023-01-29T01:02:46;101021.05;;;-0.09;74.86
67987;BME280;54767;53.800;15.956;2023-01-29T01:05:33;101019.86;;;-0.09;74.78
67987;BME280;54767;53.800;15.956;2023-01-29T01:08:02;101028.70;;;-0.08;75.16
67987;BME280;54767;53.800;15.956;2023-01-29T01:10:32;101029.56;;;-0.07;74.86
67987;BME280;54767;53.800;15.956;2023-01-29T01:13:03;101025.39;;;-0.08;74.93
67987;BME280;54767;53.800;15.956;2023-01-29T01:15:37;101013.11;;;-0.09;75.02
67987;BME280;54767;53.800;15.956;2023-01-29T01:18:06;101006.83;;;-0.11;75.36
67987;BME280;54767;53.800;15.956;2023-01-29T01:20:35;101005.39;;;-0.12;75.26
67987;BME280;54767;53.800;15.956;2023-01-29T01:23:04;101001.85;;;-0.11;75.39
67987;BME280;54767;53.800;15.956;2023-01-29T01:25:32;101001.36;;;-0.10;75.48
67987;BME280;54767;53.800;15.956;2023-01-29T01:28:01;100996.52;;;-0.08;75.76
67987;BME280;54767;53.800;15.956;2023-01-29T01:30:29;100991.30;;;-0.05;75.39
67987;BME280;54767;53.800;15.956;2023-01-29T01:32:57;100989.49;;;-0.07;75.57
67987;BME280;54767;53.800;15.956;2023-01-29T01:35:25;100985.97;;;-0.09;75.97
67987;BME280;54767;53.800;15.956;2023-01-29T01:37:54;100993.64;;;-0.10;76.13
67987;BME280;54767;53.800;15.956;2023-01-29T01:40:24;100998.55;;;-0.11;75.89
67987;BME280;54767;53.800;15.956;2023-01-29T01:42:55;100998.83;;;-0.09;76.01
67987;BME280;54767;53.800;15.956;2023-01-29T01:45:27;100993.61;;;-0.07;75.60
67987;BME280;54767;53.800;15.956;2023-01-29T01:48:03;100993.55;;;-0.05;75.83
67987;BME280;54767;53.800;15.956;2023-01-29T01:50:40;100983.96;;;-0.05;76.08
67987;BME280;54767;53.800;15.956;2023-01-29T01:53:12;100976.45;;;-0.04;76.16
67987;BME280;54767;53.800;15.956;2023-01-29T01:55:48;100974.21;;;-0.03;75.96
67987;BME280;54767;53.800;15.956;2023-01-29T01:58:31;100974.55;;;-0.04;76.36
67987;BME280;54767;53.800;15.956;2023-01-29T02:01:03;100966.77;;;-0.04;76.36
67987;BME280;54767;53.800;15.956;2023-01-29T02:03:39;100970.13;;;-0.03;76.08
67987;BME280;54767;53.800;15.956;2023-01-29T02:06:29;100962.48;;;-0.01;76.23
67987;BME280;54767;53.800;15.956;2023-01-29T02:09:20;100958.70;;;-0.01;76.37
67987;BME280;54767;53.800;15.956;2023-01-29T02:12:11;100958.63;;;-0.02;76.33
67987;BME280;54767;53.800;15.956;2023-01-29T02:14:41;100957.90;;;-0.03;76.47
67987;BME280;54767;53.800;15.956;2023-01-29T02:17:16;100957.89;;;-0.03;76.51
67987;BME280;54767;53.800;15.956;2023-01-29T02:28:26;100949.84;;;-0.03;76.62
67987;BME280;54767;53.800;15.956;2023-01-29T02:31:19;100948.77;;;-0.03;76.67
67987;BME280;54767;53.800;15.956;2023-01-29T02:37:08;100954.73;;;-0.01;76.76
67987;BME280;54767;53.800;15.956;2023-01-29T02:39:55;100958.16;;;0.02;77.05
67987;BME280;54767;53.800;15.956;2023-01-29T02:42:27;100960.77;;;0.03;77.08
67987;BME280;54767;53.800;15.956;2023-01-29T02:45:08;100965.32;;;0.04;77.18
67987;BME280;54767;53.800;15.956;2023-01-29T02:47:44;100959.88;;;0.05;77.11
67987;BME280;54767;53.800;15.956;2023-01-29T02:50:20;100951.06;;;0.07;77.03
67987;BME280;54767;53.800;15.956;2023-01-29T02:53:00;100942.34;;;0.08;77.22
67987;BME280;54767;53.800;15.956;2023-01-29T02:55:39;100929.70;;;0.10;77.11
67987;BME280;54767;53.800;15.956;2023-01-29T02:58:26;100932.80;;;0.10;77.27
67987;BME280;54767;53.800;15.956;2023-01-29T03:01:02;100933.86;;;0.11;76.96
67987;BME280;54767;53.800;15.956;2023-01-29T03:03:41;100929.43;;;0.11;77.18
67987;BME280;54767;53.800;15.956;2023-01-29T03:06:40;100929.15;;;0.16;77.42
67987;BME280;54767;53.800;15.956;2023-01-29T03:09:10;100926.95;;;0.19;77.24
67987;BME280;54767;53.800;15.956;2023-01-29T03:11:45;100919.55;;;0.23;77.20
67987;BME280;54767;53.800;15.956;2023-01-29T03:14:24;100919.77;;;0.24;77.35
67987;BME280;54767;53.800;15.956;2023-01-29T03:17:17;100917.73;;;0.20;77.30
67987;BME280;54767;53.800;15.956;2023-01-29T03:19:48;100917.41;;;0.21;77.50
67987;BME280;54767;53.800;15.956;2023-01-29T03:22:18;100921.09;;;0.23;77.31
67987;BME280;54767;53.800;15.956;2023-01-29T03:24:56;100918.47;;;0.25;77.67
67987;BME280;54767;53.800;15.956;2023-01-29T03:27:58;100912.39;;;0.27;77.54
67987;BME280;54767;53.800;15.956;2023-01-29T03:31:05;100908.36;;;0.26;77.68
67987;BME280;54767;53.800;15.956;2023-01-29T03:34:17;100905.48;;;0.23;77.69
67987;BME280;54767;53.800;15.956;2023-01-29T03:36:57;100904.64;;;0.24;77.97
67987;BME280;54767;53.800;15.956;2023-01-29T03:39:28;100906.44;;;0.25;78.07
67987;BME280;54767;53.800;15.956;2023-01-29T03:47:21;100907.13;;;0.35;78.04
67987;BME280;54767;53.800;15.956;2023-01-29T03:49:54;100911.61;;;0.35;78.10
67987;BME280;54767;53.800;15.956;2023-01-29T03:52:41;100912.02;;;0.36;78.06
67987;BME280;54767;53.800;15.956;2023-01-29T03:55:23;100906.58;;;0.37;78.02
67987;BME280;54767;53.800;15.956;2023-01-29T03:58:20;100899.30;;;0.40;77.79
67987;BME280;54767;53.800;15.956;2023-01-29T04:03:39;100894.90;;;0.41;78.02
67987;BME280;54767;53.800;15.956;2023-01-29T04:06:16;100891.67;;;0.42;78.28
67987;BME280;54767;53.800;15.956;2023-01-29T04:09:05;100892.20;;;0.42;78.28
67987;BME280;54767;53.800;15.956;2023-01-29T04:11:38;100886.38;;;0.43;78.20
67987;BME280;54767;53.800;15.956;2023-01-29T04:14:10;100892.71;;;0.45;78.40
67987;BME280;54767;53.800;15.956;2023-01-29T04:16:47;100892.10;;;0.47;78.19
67987;BME280;54767;53.800;15.956;2023-01-29T04:19:18;100891.79;;;0.48;78.11
67987;BME280;54767;53.800;15.956;2023-01-29T04:21:48;100891.77;;;0.47;78.17
67987;BME280;54767;53.800;15.956;2023-01-29T04:24:17;100891.42;;;0.47;78.34
67987;BME280;54767;53.800;15.956;2023-01-29T04:26:57;100895.78;;;0.49;78.16
67987;BME280;54767;53.800;15.956;2023-01-29T04:29:58;100892.88;;;0.52;78.52
67987;BME280;54767;53.800;15.956;2023-01-29T04:38:13;100883.44;;;0.53;78.39
67987;BME280;54767;53.800;15.956;2023-01-29T04:41:06;100882.16;;;0.52;78.55
67987;BME280;54767;53.800;15.956;2023-01-29T04:43:51;100877.66;;;0.54;78.58
67987;BME280;54767;53.800;15.956;2023-01-29T04:49:47;100881.63;;;0.58;78.66
67987;BME280;54767;53.800;15.956;2023-01-29T04:52:21;100879.88;;;0.57;78.53
67987;BME280;54767;53.800;15.956;2023-01-29T04:55:08;100876.92;;;0.56;78.92
67987;BME280;54767;53.800;15.956;2023-01-29T05:00:17;100868.00;;;0.60;79.26
67987;BME280;54767;53.800;15.956;2023-01-29T05:02:47;100878.58;;;0.61;79.05
67987;BME280;54767;53.800;15.956;2023-01-29T05:05:17;100881.45;;;0.64;79.05
67987;BME280;54767;53.800;15.956;2023-01-29T05:07:47;100882.14;;;0.64;79.12
67987;BME280;54767;53.800;15.956;2023-01-29T05:10:17;100877.16;;;0.64;79.09
67987;BME280;54767;53.800;15.956;2023-01-29T05:12:59;100871.51;;;0.65;79.17
67987;BME280;54767;53.800;15.956;2023-01-29T05:15:38;100865.94;;;0.67;79.02
67987;BME280;54767;53.800;15.956;2023-01-29T05:18:07;100866.92;;;0.70;79.37
67987;BME280;54767;53.800;15.956;2023-01-29T05:20:38;100860.41;;;0.71;79.22
67987;BME280;54767;53.800;15.956;2023-01-29T05:23:18;100857.52;;;0.71;78.84
67987;BME280;54767;53.800;15.956;2023-01-29T05:25:48;100851.67;;;0.72;79.29
67987;BME280;54767;53.800;15.956;2023-01-29T05:28:18;100856.56;;;0.72;79.15
67987;BME280;54767;53.800;15.956;2023-01-29T05:30:48;100855.75;;;0.73;79.19
67987;BME280;54767;53.800;15.956;2023-01-29T05:33:25;100845.95;;;0.74;79.13
67987;BME280;54767;53.800;15.956;2023-01-29T05:35:55;100844.95;;;0.75;79.29
67987;BME280;54767;53.800;15.956;2023-01-29T05:38:24;100839.94;;;0.74;79.16
67987;BME280;54767;53.800;15.956;2023-01-29T05:40:52;100835.81;;;0.71;79.43
67987;BME280;54767;53.800;15.956;2023-01-29T05:43:24;100829.91;;;0.70;79.17
67987;BME280;54767;53.800;15.956;2023-01-29T05:46:00;100823.86;;;0.70;79.58
67987;BME280;54767;53.800;15.956;2023-01-29T05:48:29;100823.04;;;0.71;79.74
67987;BME280;54767;53.800;15.956;2023-01-29T05:51:00;100816.02;;;0.71;79.76
67987;BME280;54767;53.800;15.956;2023-01-29T05:53:29;100816.53;;;0.71;79.76
67987;BME280;54767;53.800;15.956;2023-01-29T05:56:00;100813.89;;;0.70;79.91
67987;BME280;54767;53.800;15.956;2023-01-29T05:58:30;100821.61;;;0.69;79.63
67987;BME280;54767;53.800;15.956;2023-01-29T06:01:17;100818.88;;;0.70;79.82
67987;BME280;54767;53.800;15.956;2023-01-29T06:03:46;100815.35;;;0.72;79.76
67987;BME280;54767;53.800;15.956;2023-01-29T06:06:15;100813.20;;;0.73;79.96
67987;BME280;54767;53.800;15.956;2023-01-29T06:08:44;100808.73;;;0.74;80.03
67987;BME280;54767;53.800;15.956;2023-01-29T06:11:13;100807.98;;;0.73;79.83
67987;BME280;54767;53.800;15.956;2023-01-29T06:13:41;100803.77;;;0.71;79.91
67987;BME280;54767;53.800;15.956;2023-01-29T06:16:11;100797.90;;;0.71;80.28
67987;BME280;54767;53.800;15.956;2023-01-29T06:18:40;100791.88;;;0.71;80.16
67987;BME280;54767;53.800;15.956;2023-01-29T06:21:11;100789.85;;;0.72;80.28
67987;BME280;54767;53.800;15.956;2023-01-29T06:23:39;100796.08;;;0.72;80.35
67987;BME280;54767;53.800;15.956;2023-01-29T06:26:11;100797.49;;;0.73;80.00
67987;BME280;54767;53.800;15.956;2023-01-29T06:28:40;100804.38;;;0.73;80.32
67987;BME280;54767;53.800;15.956;2023-01-29T06:31:09;100803.17;;;0.73;80.31
67987;BME280;54767;53.800;15.956;2023-01-29T06:33:58;100800.98;;;0.73;80.23
67987;BME280;54767;53.800;15.956;2023-01-29T06:36:26;100798.65;;;0.75;80.28
67987;BME280;54767;53.800;15.956;2023-01-29T06:38:55;100803.72;;;0.76;80.31
67987;BME280;54767;53.800;15.956;2023-01-29T06:41:23;100808.88;;;0.77;80.27
67987;BME280;54767;53.800;15.956;2023-01-29T06:43:52;100814.70;;;0.76;80.32
67987;BME280;54767;53.800;15.956;2023-01-29T06:46:21;100821.01;;;0.75;80.52
67987;BME280;54767;53.800;15.956;2023-01-29T06:48:49;100832.92;;;0.75;80.52
67987;BME280;54767;53.800;15.956;2023-01-29T06:51:17;100828.41;;;0.78;80.41
67987;BME280;54767;53.800;15.956;2023-01-29T06:53:46;100823.16;;;0.79;80.33
67987;BME280;54767;53.800;15.956;2023-01-29T06:56:14;100821.96;;;0.80;80.25
67987;BME280;54767;53.800;15.956;2023-01-29T06:58:42;100822.64;;;0.80;80.20
67987;BME280;54767;53.800;15.956;2023-01-29T07:01:11;100816.06;;;0.79;80.21
67987;BME280;54767;53.800;15.956;2023-01-29T07:04:00;100808.67;;;0.79;80.36
67987;BME280;54767;53.800;15.956;2023-01-29T07:06:29;100801.81;;;0.80;80.19
67987;BME280;54767;53.800;15.956;2023-01-29T07:08:58;100800.48;;;0.81;80.32
67987;BME280;54767;53.800;15.956;2023-01-29T07:11:26;100804.27;;;0.81;80.21
67987;BME280;54767;53.800;15.956;2023-01-29T07:13:55;100801.33;;;0.80;80.41
67987;BME280;54767;53.800;15.956;2023-01-29T07:16:23;100796.80;;;0.80;80.29
67987;BME280;54767;53.800;15.956;2023-01-29T07:18:53;100793.54;;;0.80;80.63
67987;BME280;54767;53.800;15.956;2023-01-29T07:21:22;100787.61;;;0.82;80.48
67987;BME280;54767;53.800;15.956;2023-01-29T07:23:51;100779.41;;;0.84;80.39
67987;BME280;54767;53.800;15.956;2023-01-29T07:26:19;100766.85;;;0.83;80.52
67987;BME280;54767;53.800;15.956;2023-01-29T07:28:48;100763.21;;;0.83;80.68
67987;BME280;54767;53.800;15.956;2023-01-29T07:31:16;100769.75;;;0.83;80.68
67987;BME280;54767;53.800;15.956;2023-01-29T07:33:45;100781.10;;;0.83;80.52
67987;BME280;54767;53.800;15.956;2023-01-29T07:36:13;100772.02;;;0.84;80.88
67987;BME280;54767;53.800;15.956;2023-01-29T07:38:42;100768.66;;;0.86;81.02
67987;BME280;54767;53.800;15.956;2023-01-29T07:41:10;100765.85;;;0.88;80.70
67987;BME280;54767;53.800;15.956;2023-01-29T07:43:39;100760.02;;;0.88;80.37
67987;BME280;54767;53.800;15.956;2023-01-29T07:46:07;100753.29;;;0.88;80.67
67987;BME280;54767;53.800;15.956;2023-01-29T07:48:36;100748.36;;;0.89;81.09
67987;BME280;54767;53.800;15.956;2023-01-29T07:51:04;100750.70;;;0.92;80.78
67987;BME280;54767;53.800;15.956;2023-01-29T07:53:33;100749.23;;;0.93;80.59
67987;BME280;54767;53.800;15.956;2023-01-29T07:56:02;100744.66;;;0.95;80.72
67987;BME280;54767;53.800;15.956;2023-01-29T07:58:30;100744.53;;;0.96;80.71
67987;BME280;54767;53.800;15.956;2023-01-29T08:00:58;100740.16;;;0.95;80.79
67987;BME280;54767;53.800;15.956;2023-01-29T08:03:27;100738.61;;;0.95;80.91
67987;BME280;54767;53.800;15.956;2023-01-29T08:05:56;100737.79;;;0.96;80.97
67987;BME280;54767;53.800;15.956;2023-01-29T08:08:25;100736.08;;;0.96;81.05
67987;BME280;54767;53.800;15.956;2023-01-29T08:10:53;100742.14;;;0.96;80.97
67987;BME280;54767;53.800;15.956;2023-01-29T08:13:21;100744.19;;;0.96;80.99
67987;BME280;54767;53.800;15.956;2023-01-29T08:15:50;100746.42;;;0.96;81.33
67987;BME280;54767;53.800;15.956;2023-01-29T08:18:18;100750.22;;;0.96;81.37
67987;BME280;54767;53.800;15.956;2023-01-29T08:20:46;100748.18;;;0.96;80.99
67987;BME280;54767;53.800;15.956;2023-01-29T08:23:15;100745.45;;;0.97;81.21
67987;BME280;54767;53.800;15.956;2023-01-29T08:25:43;100742.21;;;0.98;81.05
67987;BME280;54767;53.800;15.956;2023-01-29T08:28:12;100737.32;;;1.00;81.17
67987;BME280;54767;53.800;15.956;2023-01-29T08:30:40;100740.74;;;1.00;81.12
67987;BME280;54767;53.800;15.956;2023-01-29T08:33:09;100734.48;;;0.98;81.23
67987;BME280;54767;53.800;15.956;2023-01-29T08:35:38;100728.76;;;0.98;81.64
67987;BME280;54767;53.800;15.956;2023-01-29T08:38:08;100733.54;;;1.00;81.57
67987;BME280;54767;53.800;15.956;2023-01-29T08:40:37;100733.98;;;1.02;81.61
67987;BME280;54767;53.800;15.956;2023-01-29T08:43:06;100738.08;;;1.05;81.34
67987;BME280;54767;53.800;15.956;2023-01-29T08:45:39;100739.67;;;1.06;81.29
67987;BME280;54767;53.800;15.956;2023-01-29T08:48:09;100734.48;;;1.05;81.52
67987;BME280;54767;53.800;15.956;2023-01-29T08:50:38;100739.73;;;1.03;81.64
67987;BME280;54767;53.800;15.956;2023-01-29T08:53:07;100746.58;;;1.02;81.45
67987;BME280;54767;53.800;15.956;2023-01-29T08:55:37;100753.13;;;1.03;81.67
67987;BME280;54767;53.800;15.956;2023-01-29T08:58:08;100755.42;;;1.04;81.94
67987;BME280;54767;53.800;15.956;2023-01-29T09:00:37;100754.64;;;1.05;82.02
67987;BME280;54767;53.800;15.956;2023-01-29T09:03:06;100753.48;;;1.06;81.66
67987;BME280;54767;53.800;15.956;2023-01-29T09:05:36;100750.04;;;1.06;81.78
67987;BME280;54767;53.800;15.956;2023-01-29T09:08:06;100754.05;;;1.07;81.79
67987;BME280;54767;53.800;15.956;2023-01-29T09:10:35;100757.19;;;1.08;81.91
67987;BME280;54767;53.800;15.956;2023-01-29T09:13:03;100756.67;;;1.12;82.05
67987;BME280;54767;53.800;15.956;2023-01-29T09:15:32;100753.60;;;1.16;81.87
67987;BME280;54767;53.800;15.956;2023-01-29T09:18:03;100751.85;;;1.19;81.88
67987;BME280;54767;53.800;15.956;2023-01-29T09:20:32;100748.79;;;1.20;81.91
67987;BME280;54767;53.800;15.956;2023-01-29T09:23:05;100753.66;;;1.21;81.90
67987;BME280;54767;53.800;15.956;2023-01-29T09:25:35;100754.17;;;1.21;81.92
67987;BME280;54767;53.800;15.956;2023-01-29T09:28:03;100750.14;;;1.23;81.89
67987;BME280;54767;53.800;15.956;2023-01-29T09:30:33;100753.80;;;1.24;82.04
67987;BME280;54767;53.800;15.956;2023-01-29T09:33:05;100757.64;;;1.25;81.95
67987;BME280;54767;53.800;15.956;2023-01-29T09:35:34;100755.52;;;1.27;82.04
67987;BME280;54767;53.800;15.956;2023-01-29T09:38:02;100750.03;;;1.28;82.09
67987;BME280;54767;53.800;15.956;2023-01-29T09:40:43;100743.77;;;1.26;82.21
67987;BME280;54767;53.800;15.956;2023-01-29T09:43:17;100744.73;;;1.25;82.16
67987;BME280;54767;53.800;15.956;2023-01-29T09:45:54;100738.91;;;1.26;82.23
67987;BME280;54767;53.800;15.956;2023-01-29T09:48:26;100744.81;;;1.27;82.17
67987;BME280;54767;53.800;15.956;2023-01-29T09:50:57;100749.20;;;1.28;82.28
67987;BME280;54767;53.800;15.956;2023-01-29T09:53:43;100751.36;;;1.30;82.38
67987;BME280;54767;53.800;15.956;2023-01-29T09:56:19;100741.27;;;1.32;82.30
67987;BME280;54767;53.800;15.956;2023-01-29T09:58:48;100740.89;;;1.31;82.28
67987;BME280;54767;53.800;15.956;2023-01-29T10:01:38;100737.95;;;1.31;82.46
67987;BME280;54767;53.800;15.956;2023-01-29T10:12:10;100720.14;;;1.38;82.55
67987;BME280;54767;53.800;15.956;2023-01-29T10:17:39;100722.32;;;1.40;82.75
67987;BME280;54767;53.800;15.956;2023-01-29T10:25:48;100697.42;;;1.46;82.68
67987;BME280;54767;53.800;15.956;2023-01-29T10:28:22;100694.59;;;1.48;82.59
67987;BME280;54767;53.800;15.956;2023-01-29T10:33:42;100679.85;;;1.50;82.76
67987;BME280;54767;53.800;15.956;2023-01-29T10:36:44;100671.40;;;1.50;82.88
67987;BME280;54767;53.800;15.956;2023-01-29T10:39:21;100669.93;;;1.52;82.80
67987;BME280;54767;53.800;15.956;2023-01-29T10:45:03;100667.63;;;1.55;82.77
67987;BME280;54767;53.800;15.956;2023-01-29T10:48:00;100668.27;;;1.57;82.75
67987;BME280;54767;53.800;15.956;2023-01-29T10:53:33;100657.64;;;1.59;82.95
67987;BME280;54767;53.800;15.956;2023-01-29T11:01:44;100644.65;;;1.62;82.93
67987;BME280;54767;53.800;15.956;2023-01-29T11:04:13;100638.84;;;1.63;82.92
67987;BME280;54767;53.800;15.956;2023-01-29T11:06:42;100637.64;;;1.63;82.93
67987;BME280;54767;53.800;15.956;2023-01-29T11:11:52;100629.36;;;1.63;83.09
67987;BME280;54767;53.800;15.956;2023-01-29T11:17:20;100633.15;;;1.67;83.01
67987;BME280;54767;53.800;15.956;2023-01-29T11:19:50;100632.55;;;1.69;82.93
67987;BME280;54767;53.800;15.956;2023-01-29T11:22:22;100628.63;;;1.70;82.90
67987;BME280;54767;53.800;15.956;2023-01-29T11:25:16;100623.69;;;1.71;82.84
67987;BME280;54767;53.800;15.956;2023-01-29T11:27:54;100613.17;;;1.71;83.00
67987;BME280;54767;53.800;15.956;2023-01-29T11:30:26;100603.21;;;1.73;83.01
67987;BME280;54767;53.800;15.956;2023-01-29T11:35:33;100589.19;;;1.76;82.91
67987;BME280;54767;53.800;15.956;2023-01-29T11:38:25;100582.55;;;1.77;83.00
67987;BME280;54767;53.800;15.956;2023-01-29T11:41:05;100579.27;;;1.77;82.99
67987;BME280;54767;53.800;15.956;2023-01-29T11:43:34;100571.80;;;1.76;83.20
67987;BME280;54767;53.800;15.956;2023-01-29T11:46:04;100567.80;;;1.75;83.10
67987;BME280;54767;53.800;15.956;2023-01-29T11:51:28;100569.47;;;1.78;83.02
67987;BME280;54767;53.800;15.956;2023-01-29T11:54:03;100559.92;;;1.81;83.05
67987;BME280;54767;53.800;15.956;2023-01-29T11:56:40;100554.83;;;1.83;83.07
67987;BME280;54767;53.800;15.956;2023-01-29T12:02:32;100538.27;;;1.83;83.22
67987;BME280;54767;53.800;15.956;2023-01-29T12:05:23;100540.31;;;1.83;83.21
67987;BME280;54767;53.800;15.956;2023-01-29T12:07:55;100538.10;;;1.84;83.25
67987;BME280;54767;53.800;15.956;2023-01-29T12:10:41;100533.56;;;1.87;83.16
67987;BME280;54767;53.800;15.956;2023-01-29T12:15:43;100532.80;;;1.93;83.31
67987;BME280;54767;53.800;15.956;2023-01-29T12:20:53;100537.35;;;1.94;83.28
67987;BME280;54767;53.800;15.956;2023-01-29T12:26:21;100529.95;;;1.95;83.28
67987;BME280;54767;53.800;15.956;2023-01-29T12:29:22;100520.36;;;1.97;83.34
67987;BME280;54767;53.800;15.956;2023-01-29T12:32:22;100516.84;;;1.99;83.34
67987;BME280;54767;53.800;15.956;2023-01-29T12:35:00;100511.90;;;2.00;83.35
67987;BME280;54767;53.800;15.956;2023-01-29T12:37:51;100508.13;;;2.01;83.48
67987;BME280;54767;53.800;15.956;2023-01-29T12:40:27;100507.98;;;2.02;83.59
67987;BME280;54767;53.800;15.956;2023-01-29T12:43:02;100496.27;;;2.03;83.47
67987;BME280;54767;53.800;15.956;2023-01-29T12:45:35;100496.14;;;2.04;83.53
67987;BME280;54767;53.800;15.956;2023-01-29T12:48:07;100504.52;;;2.07;83.53
67987;BME280;54767;53.800;15.956;2023-01-29T12:50:37;100501.34;;;2.09;83.48
67987;BME280;54767;53.800;15.956;2023-01-29T12:55:50;100496.25;;;2.15;83.68
67987;BME280;54767;53.800;15.956;2023-01-29T12:58:38;100495.85;;;2.18;83.75
67987;BME280;54767;53.800;15.956;2023-01-29T13:01:15;100501.71;;;2.18;83.68
67987;BME280;54767;53.800;15.956;2023-01-29T13:04:20;100500.16;;;2.18;83.59
67987;BME280;54767;53.800;15.956;2023-01-29T13:07:00;100489.88;;;2.20;83.54
67987;BME280;54767;53.800;15.956;2023-01-29T13:09:31;100489.59;;;2.22;83.68
67987;BME280;54767;53.800;15.956;2023-01-29T13:12:08;100479.52;;;2.25;83.61
67987;BME280;54767;53.800;15.956;2023-01-29T13:14:46;100472.19;;;2.27;83.71
67987;BME280;54767;53.800;15.956;2023-01-29T13:17:34;100472.25;;;2.29;83.56
67987;BME280;54767;53.800;15.956;2023-01-29T13:20:21;100479.23;;;2.30;83.70
67987;BME280;54767;53.800;15.956;2023-01-29T13:22:53;100483.77;;;2.32;83.75
67987;BME280;54767;53.800;15.956;2023-01-29T13:25:24;100489.88;;;2.33;83.75
67987;BME280;54767;53.800;15.956;2023-01-29T13:27:53;100491.02;;;2.36;83.75
67987;BME280;54767;53.800;15.956;2023-01-29T13:30:29;100489.92;;;2.39;83.67
67987;BME280;54767;53.800;15.956;2023-01-29T13:33:00;100489.64;;;2.40;83.52
67987;BME280;54767;53.800;15.956;2023-01-29T13:35:43;100491.66;;;2.39;83.48
67987;BME280;54767;53.800;15.956;2023-01-29T13:38:23;100478.70;;;2.39;83.64
67987;BME280;54767;53.800;15.956;2023-01-29T13:41:02;100471.80;;;2.39;83.64
67987;BME280;54767;53.800;15.956;2023-01-29T13:43:37;100463.78;;;2.37;83.59
67987;BME280;54767;53.800;15.956;2023-01-29T13:46:14;100460.99;;;2.37;83.64
67987;BME280;54767;53.800;15.956;2023-01-29T13:48:46;100464.11;;;2.37;83.64
67987;BME280;54767;53.800;15.956;2023-01-29T13:51:20;100464.68;;;2.38;83.77
67987;BME280;54767;53.800;15.956;2023-01-29T13:53:57;100462.61;;;2.38;83.63
67987;BME280;54767;53.800;15.956;2023-01-29T13:59:04;100457.73;;;2.37;83.66
67987;BME280;54767;53.800;15.956;2023-01-29T14:04:23;100453.04;;;2.37;83.80
67987;BME280;54767;53.800;15.956;2023-01-29T14:07:00;100442.52;;;2.37;83.65
67987;BME280;54767;53.800;15.956;2023-01-29T14:15:12;100422.41;;;2.39;83.68
67987;BME280;54767;53.800;15.956;2023-01-29T14:23:36;100418.91;;;2.38;83.66
67987;BME280;54767;53.800;15.956;2023-01-29T14:29:03;100424.89;;;2.36;83.35
67987;BME280;54767;53.800;15.956;2023-01-29T14:34:35;100419.65;;;2.30;83.38
67987;BME280;54767;53.800;15.956;2023-01-29T14:39:55;100412.27;;;2.27;83.46
67987;BME280;54767;53.800;15.956;2023-01-29T14:42:28;100409.70;;;2.28;83.44
67987;BME280;54767;53.800;15.956;2023-01-29T14:55:43;100382.66;;;2.24;83.55
67987;BME280;54767;53.800;15.956;2023-01-29T14:58:37;100377.63;;;2.24;83.64
67987;BME280;54767;53.800;15.956;2023-01-29T15:01:25;100377.45;;;2.24;83.59
67987;BME280;54767;53.800;15.956;2023-01-29T15:06:41;100368.73;;;2.26;83.69
67987;BME280;54767;53.800;15.956;2023-01-29T15:18:07;100350.96;;;2.22;83.72
67987;BME280;54767;53.800;15.956;2023-01-29T15:20:41;100353.63;;;2.24;83.83
67987;BME280;54767;53.800;15.956;2023-01-29T15:23:36;100350.59;;;2.26;83.75
67987;BME280;54767;53.800;15.956;2023-01-29T15:26:09;100352.08;;;2.29;83.84
67987;BME280;54767;53.800;15.956;2023-01-29T15:28:44;100350.88;;;2.29;83.79
67987;BME280;54767;53.800;15.956;2023-01-29T15:31:26;100348.92;;;2.28;84.02
67987;BME280;54767;53.800;15.956;2023-01-29T15:33:55;100350.64;;;2.28;83.85
67987;BME280;54767;53.800;15.956;2023-01-29T15:36:26;100352.06;;;2.28;83.83
67987;BME280;54767;53.800;15.956;2023-01-29T15:41:36;100342.62;;;2.30;83.85